sensor_id;sensor_type;location;lat;lon;timestamp;pressure;altitude;pressure_sealevel;temperature;humidity
19795;BME280;10057;59.402;17.866;2022-08-30T00:02:13;101975.78;;;12.45;70.94
19795;BME280;10057;59.402;17.866;2022-08-30T00:04:42;101977.66;;;12.41;71.48
19795;BME280;10057;59.402;17.866;2022-08-30T00:07:09;101982.13;;;12.39;71.41
19795;BME280;10057;59.402;17.866;2022-08-30T00:09:36;101976.00;;;12.36;71.50
19795;BME280;10057;59.402;17.866;2022-08-30T00:12:03;101978.69;;;12.34;71.52
19795;BME280;10057;59.402;17.866;2022-08-30T00:14:30;101974.34;;;12.31;71.69
19795;BME280;10057;59.402;17.866;2022-08-30T00:16:56;101976.97;;;12.33;71.75
19795;BME280;10057;59.402;17.866;2022-08-30T00:19:23;101976.09;;;12.32;71.92
19795;BME280;10057;59.402;17.866;2022-08-30T00:21:50;101981.34;;;12.36;71.80
19795;BME280;10057;59.402;17.866;2022-08-30T00:24:17;101978.69;;;12.36;72.09
19795;BME280;10057;59.402;17.866;2022-08-30T00:26:43;101974.22;;;12.38;71.90
19795;BME280;10057;59.402;17.866;2022-08-30T00:29:10;101983.06;;;12.37;72.09
19795;BME280;10057;59.402;17.866;2022-08-30T00:31:37;101979.59;;;12.35;71.97
19795;BME280;10057;59.402;17.866;2022-08-30T00:34:04;101984.91;;;12.35;72.11
19795;BME280;10057;59.402;17.866;2022-08-30T00:36:30;101979.59;;;12.35;72.41
19795;BME280;10057;59.402;17.866;2022-08-30T00:38:57;101983.13;;;12.35;72.16
19795;BME280;10057;59.402;17.866;2022-08-30T00:41:23;101978.63;;;12.37;72.05
19795;BME280;10057;59.402;17.866;2022-08-30T00:43:50;101980.41;;;12.37;72.41
19795;BME280;10057;59.402;17.866;2022-08-30T00:46:17;101980.47;;;12.35;72.15
19795;BME280;10057;59.402;17.866;2022-08-30T00:48:47;101980.41;;;12.37;72.53
19795;BME280;10057;59.402;17.866;2022-08-30T00:51:16;101973.47;;;12.31;72.28
19795;BME280;10057;59.402;17.866;2022-08-30T00:53:48;101976.22;;;12.26;72.71
19795;BME280;10057;59.402;17.866;2022-08-30T00:56:16;101978.16;;;12.21;72.50
19795;BME280;10057;59.402;17.866;2022-08-30T00:58:48;101969.31;;;12.19;72.75
19795;BME280;10057;59.402;17.866;2022-08-30T01:01:17;101971.22;;;12.14;72.82
19795;BME280;10057;59.402;17.866;2022-08-30T01:03:44;101972.19;;;12.12;73.10
19795;BME280;10057;59.402;17.866;2022-08-30T01:06:12;101973.97;;;12.11;73.24
19795;BME280;10057;59.402;17.866;2022-08-30T01:08:44;101970.38;;;12.12;73.32
19795;BME280;10057;59.402;17.866;2022-08-30T01:11:13;101974.75;;;12.15;73.16
19795;BME280;10057;59.402;17.866;2022-08-30T01:13:40;101981.88;;;12.14;73.00
19795;BME280;10057;59.402;17.866;2022-08-30T01:16:08;101980.09;;;12.15;73.30
19795;BME280;10057;59.402;17.866;2022-08-30T01:18:35;101974.78;;;12.13;73.29
19795;BME280;10057;59.402;17.866;2022-08-30T01:21:18;101970.44;;;12.11;73.22
19795;BME280;10057;59.402;17.866;2022-08-30T01:23:49;101974.84;;;12.10;73.34
19795;BME280;10057;59.402;17.866;2022-08-30T01:26:20;101971.31;;;12.11;73.16
19795;BME280;10057;59.402;17.866;2022-08-30T01:28:52;101962.47;;;12.09;73.31
19795;BME280;10057;59.402;17.866;2022-08-30T01:31:20;101964.31;;;12.07;73.22
19795;BME280;10057;59.402;17.866;2022-08-30T01:33:47;101968.72;;;12.06;73.32
19795;BME280;10057;59.402;17.866;2022-08-30T01:36:14;101970.53;;;12.06;73.42
19795;BME280;10057;59.402;17.866;2022-08-30T01:38:45;101959.00;;;12.05;73.26
19795;BME280;10057;59.402;17.866;2022-08-30T01:41:24;101959.88;;;12.06;73.53
19795;BME280;10057;59.402;17.866;2022-08-30T01:43:53;101955.47;;;12.05;73.59
19795;BME280;10057;59.402;17.866;2022-08-30T01:46:25;101958.16;;;12.05;73.44
19795;BME280;10057;59.402;17.866;2022-08-30T01:48:54;101953.75;;;12.04;73.70
19795;BME280;10057;59.402;17.866;2022-08-30T01:51:24;101951.09;;;12.04;73.78
19795;BME280;10057;59.402;17.866;2022-08-30T01:53:51;101951.91;;;12.06;73.72
19795;BME280;10057;59.402;17.866;2022-08-30T01:56:18;101957.22;;;12.06;73.74
19795;BME280;10057;59.402;17.866;2022-08-30T01:58:45;101960.69;;;12.09;73.45
19795;BME280;10057;59.402;17.866;2022-08-30T02:01:14;101959.88;;;12.07;73.57
19795;BME280;10057;59.402;17.866;2022-08-30T02:03:43;101962.53;;;12.06;73.70
19795;BME280;10057;59.402;17.866;2022-08-30T02:06:12;101954.56;;;12.06;73.88
19795;BME280;10057;59.402;17.866;2022-08-30T02:08:40;101954.63;;;12.04;73.79
19795;BME280;10057;59.402;17.866;2022-08-30T02:11:06;101954.56;;;12.06;73.81
19795;BME280;10057;59.402;17.866;2022-08-30T02:13:37;101956.34;;;12.05;74.04
19795;BME280;10057;59.402;17.866;2022-08-30T02:16:05;101965.25;;;12.04;73.91
19795;BME280;10057;59.402;17.866;2022-08-30T02:18:34;101957.28;;;12.04;73.96
19795;BME280;10057;59.402;17.866;2022-08-30T02:21:01;101961.75;;;12.02;74.04
19795;BME280;10057;59.402;17.866;2022-08-30T02:23:28;101961.78;;;12.01;74.00
19795;BME280;10057;59.402;17.866;2022-08-30T02:25:57;101961.00;;;11.96;74.22
19795;BME280;10057;59.402;17.866;2022-08-30T02:28:24;101961.00;;;11.96;74.21
19795;BME280;10057;59.402;17.866;2022-08-30T02:30:51;101955.69;;;11.96;74.05
19795;BME280;10057;59.402;17.866;2022-08-30T02:33:18;101958.34;;;11.96;74.24
19795;BME280;10057;59.402;17.866;2022-08-30T02:35:45;101955.69;;;11.96;74.23
19795;BME280;10057;59.402;17.866;2022-08-30T02:38:12;101946.09;;;11.90;74.10
19795;BME280;10057;59.402;17.866;2022-08-30T02:40:39;101952.22;;;11.94;74.56
19795;BME280;10057;59.402;17.866;2022-08-30T02:43:06;101949.63;;;11.91;74.45
19795;BME280;10057;59.402;17.866;2022-08-30T02:45:33;101950.50;;;11.90;74.52
19795;BME280;10057;59.402;17.866;2022-08-30T02:48:00;101951.47;;;11.87;74.57
19795;BME280;10057;59.402;17.866;2022-08-30T02:50:27;101951.56;;;11.84;74.78
19795;BME280;10057;59.402;17.866;2022-08-30T02:52:54;101950.72;;;11.80;74.84
19795;BME280;10057;59.402;17.866;2022-08-30T02:55:21;101948.94;;;11.79;74.97
19795;BME280;10057;59.402;17.866;2022-08-30T02:57:51;101953.38;;;11.80;75.34
19795;BME280;10057;59.402;17.866;2022-08-30T03:00:19;101942.81;;;11.77;75.19
19795;BME280;10057;59.402;17.866;2022-08-30T03:02:49;101950.84;;;11.74;75.29
19795;BME280;10057;59.402;17.866;2022-08-30T03:05:16;101946.38;;;11.76;75.25
19795;BME280;10057;59.402;17.866;2022-08-30T03:07:44;101959.59;;;11.79;75.24
19795;BME280;10057;59.402;17.866;2022-08-30T03:10:18;101957.84;;;11.78;75.18
19795;BME280;10057;59.402;17.866;2022-08-30T03:12:44;101964.91;;;11.79;74.98
19795;BME280;10057;59.402;17.866;2022-08-30T03:15:14;101963.16;;;11.78;75.22
19795;BME280;10057;59.402;17.866;2022-08-30T03:17:42;101965.00;;;11.76;75.37
19795;BME280;10057;59.402;17.866;2022-08-30T03:20:10;101957.97;;;11.74;75.11
19795;BME280;10057;59.402;17.866;2022-08-30T03:22:38;101957.09;;;11.72;75.58
19795;BME280;10057;59.402;17.866;2022-08-30T03:25:08;101957.09;;;11.72;75.53
19795;BME280;10057;59.402;17.866;2022-08-30T03:27:34;101970.44;;;11.70;75.58
19795;BME280;10057;59.402;17.866;2022-08-30T03:30:03;101963.38;;;11.69;75.86
19795;BME280;10057;59.402;17.866;2022-08-30T03:32:30;101955.41;;;11.69;75.45
19795;BME280;10057;59.402;17.866;2022-08-30T03:34:57;101962.41;;;11.72;75.63
19795;BME280;10057;59.402;17.866;2022-08-30T03:37:26;101962.34;;;11.75;75.66
19795;BME280;10057;59.402;17.866;2022-08-30T03:39:54;101960.63;;;11.74;75.81
19795;BME280;10057;59.402;17.866;2022-08-30T03:42:22;101965.00;;;11.75;75.83
19795;BME280;10057;59.402;17.866;2022-08-30T03:44:50;101974.72;;;11.76;75.77
19795;BME280;10057;59.402;17.866;2022-08-30T03:47:17;101970.31;;;11.76;75.66
19795;BME280;10057;59.402;17.866;2022-08-30T03:49:44;101980.94;;;11.76;75.74
19795;BME280;10057;59.402;17.866;2022-08-30T03:52:11;101983.63;;;11.75;75.86
19795;BME280;10057;59.402;17.866;2022-08-30T03:54:38;101984.56;;;11.72;75.86
19795;BME280;10057;59.402;17.866;2022-08-30T03:57:08;101982.88;;;11.70;75.96
19795;BME280;10057;59.402;17.866;2022-08-30T03:59:45;101978.59;;;11.62;76.08
19795;BME280;10057;59.402;17.866;2022-08-30T04:02:11;101992.75;;;11.63;76.39
19795;BME280;10057;59.402;17.866;2022-08-30T04:04:38;101987.44;;;11.63;76.32
19795;BME280;10057;59.402;17.866;2022-08-30T04:07:07;101983.06;;;11.60;76.37
19795;BME280;10057;59.402;17.866;2022-08-30T04:09:34;101989.31;;;11.58;76.53
19795;BME280;10057;59.402;17.866;2022-08-30T04:12:03;101982.28;;;11.55;76.67
19795;BME280;10057;59.402;17.866;2022-08-30T04:14:30;101991.16;;;11.56;76.42
19795;BME280;10057;59.402;17.866;2022-08-30T04:16:56;101983.09;;;11.59;76.71
19795;BME280;10057;59.402;17.866;2022-08-30T04:19:26;101989.28;;;11.59;76.62
19795;BME280;10057;59.402;17.866;2022-08-30T04:21:52;101992.81;;;11.60;77.05
19795;BME280;10057;59.402;17.866;2022-08-30T04:24:21;101995.41;;;11.63;76.57
19795;BME280;10057;59.402;17.866;2022-08-30T04:26:48;101990.94;;;11.65;76.80
19795;BME280;10057;59.402;17.866;2022-08-30T04:29:14;102000.59;;;11.69;76.73
19795;BME280;10057;59.402;17.866;2022-08-30T04:31:44;101997.03;;;11.70;76.72
19795;BME280;10057;59.402;17.866;2022-08-30T04:34:14;102001.41;;;11.73;76.76
19795;BME280;10057;59.402;17.866;2022-08-30T04:36:41;101993.38;;;11.74;76.82
19795;BME280;10057;59.402;17.866;2022-08-30T04:39:14;102007.56;;;11.75;76.66
19795;BME280;10057;59.402;17.866;2022-08-30T04:41:43;101997.78;;;11.77;77.03
19795;BME280;10057;59.402;17.866;2022-08-30T04:44:10;102005.69;;;11.80;76.97
19795;BME280;10057;59.402;17.866;2022-08-30T04:46:44;102005.63;;;11.81;76.94
19795;BME280;10057;59.402;17.866;2022-08-30T04:49:14;102004.72;;;11.82;76.93
19795;BME280;10057;59.402;17.866;2022-08-30T04:51:40;101998.50;;;11.85;76.95
19795;BME280;10057;59.402;17.866;2022-08-30T04:54:07;102006.41;;;11.88;77.06
19795;BME280;10057;59.402;17.866;2022-08-30T04:56:34;102005.47;;;11.91;76.96
19795;BME280;10057;59.402;17.866;2022-08-30T04:59:01;102007.13;;;11.95;76.98
19795;BME280;10057;59.402;17.866;2022-08-30T05:01:30;101991.19;;;11.95;76.91
19795;BME280;10057;59.402;17.866;2022-08-30T05:04:10;102007.94;;;11.98;76.96
19795;BME280;10057;59.402;17.866;2022-08-30T05:06:37;102002.56;;;12.00;76.86
19795;BME280;10057;59.402;17.866;2022-08-30T05:09:03;102014.00;;;12.05;76.93
19795;BME280;10057;59.402;17.866;2022-08-30T05:11:31;102011.28;;;12.08;76.96
19795;BME280;10057;59.402;17.866;2022-08-30T05:13:57;102012.09;;;12.10;76.87
19795;BME280;10057;59.402;17.866;2022-08-30T05:16:24;102004.03;;;12.15;76.88
19795;BME280;10057;59.402;17.866;2022-08-30T05:18:53;102005.69;;;12.19;76.91
19795;BME280;10057;59.402;17.866;2022-08-30T05:21:22;102014.47;;;12.22;76.71
19795;BME280;10057;59.402;17.866;2022-08-30T05:23:53;102016.16;;;12.26;76.71
19795;BME280;10057;59.402;17.866;2022-08-30T05:26:26;102020.47;;;12.30;76.71
19795;BME280;10057;59.402;17.866;2022-08-30T05:28:53;102024.84;;;12.35;76.67
19795;BME280;10057;59.402;17.866;2022-08-30T05:31:26;102025.66;;;12.37;76.40
19795;BME280;10057;59.402;17.866;2022-08-30T05:33:54;102030.91;;;12.40;76.46
19795;BME280;10057;59.402;17.866;2022-08-30T05:36:26;102032.63;;;12.42;76.84
19795;BME280;10057;59.402;17.866;2022-08-30T05:38:54;102032.50;;;12.47;76.34
19795;BME280;10057;59.402;17.866;2022-08-30T05:41:22;102028.84;;;12.51;76.42
19795;BME280;10057;59.402;17.866;2022-08-30T05:43:56;102029.66;;;12.54;76.19
19795;BME280;10057;59.402;17.866;2022-08-30T05:46:24;102026.03;;;12.57;76.12
19795;BME280;10057;59.402;17.866;2022-08-30T05:48:55;102019.72;;;12.61;76.29
19795;BME280;10057;59.402;17.866;2022-08-30T05:51:25;102025.81;;;12.66;76.10
19795;BME280;10057;59.402;17.866;2022-08-30T05:53:52;102022.22;;;12.67;76.09
19795;BME280;10057;59.402;17.866;2022-08-30T05:56:22;102030.94;;;12.74;76.41
19795;BME280;10057;59.402;17.866;2022-08-30T05:58:51;102029.06;;;12.77;75.94
19795;BME280;10057;59.402;17.866;2022-08-30T06:01:28;102034.25;;;12.84;76.13
19795;BME280;10057;59.402;17.866;2022-08-30T06:03:56;102022.59;;;12.88;76.09
19795;BME280;10057;59.402;17.866;2022-08-30T06:06:30;102026.91;;;12.92;76.21
19795;BME280;10057;59.402;17.866;2022-08-30T06:08:57;102028.56;;;12.97;75.92
19795;BME280;10057;59.402;17.866;2022-08-30T06:11:25;102027.47;;;13.04;76.13
19795;BME280;10057;59.402;17.866;2022-08-30T06:13:53;102031.75;;;13.10;76.04
19795;BME280;10057;59.402;17.866;2022-08-30T06:16:22;102032.50;;;13.15;75.70
19795;BME280;10057;59.402;17.866;2022-08-30T06:18:49;102032.34;;;13.21;75.87
19795;BME280;10057;59.402;17.866;2022-08-30T06:21:22;102033.94;;;13.28;75.96
19795;BME280;10057;59.402;17.866;2022-08-30T06:23:49;102024.03;;;13.34;75.62
19795;BME280;10057;59.402;17.866;2022-08-30T06:26:16;102038.06;;;13.40;75.67
19795;BME280;10057;59.402;17.866;2022-08-30T06:28:44;102037.00;;;13.46;75.53
19795;BME280;10057;59.402;17.866;2022-08-30T06:31:13;102042.16;;;13.52;75.83
19795;BME280;10057;59.402;17.866;2022-08-30T06:33:40;102036.66;;;13.58;75.77
19795;BME280;10057;59.402;17.866;2022-08-30T06:36:13;102040.03;;;13.65;75.42
19795;BME280;10057;59.402;17.866;2022-08-30T06:38:40;102030.94;;;13.70;75.36
19795;BME280;10057;59.402;17.866;2022-08-30T06:41:09;102030.75;;;13.77;75.40
19795;BME280;10057;59.402;17.866;2022-08-30T06:43:36;102035.91;;;13.83;75.36
19795;BME280;10057;59.402;17.866;2022-08-30T06:46:05;102031.22;;;13.91;75.41
19795;BME280;10057;59.402;17.866;2022-08-30T06:48:32;102036.34;;;13.98;75.41
19795;BME280;10057;59.402;17.866;2022-08-30T06:50:59;102039.78;;;14.02;75.06
19795;BME280;10057;59.402;17.866;2022-08-30T06:53:26;102046.69;;;14.08;74.95
19795;BME280;10057;59.402;17.866;2022-08-30T06:55:58;102040.31;;;14.13;74.88
19795;BME280;10057;59.402;17.866;2022-08-30T06:58:27;102048.16;;;14.18;74.91
19795;BME280;10057;59.402;17.866;2022-08-30T07:00:54;102049.78;;;14.23;74.76
19795;BME280;10057;59.402;17.866;2022-08-30T07:03:21;102045.97;;;14.31;74.83
19795;BME280;10057;59.402;17.866;2022-08-30T07:05:49;102049.25;;;14.39;74.58
19795;BME280;10057;59.402;17.866;2022-08-30T07:08:19;102044.59;;;14.45;74.50
19795;BME280;10057;59.402;17.866;2022-08-30T07:10:46;102051.59;;;14.51;74.18
19795;BME280;10057;59.402;17.866;2022-08-30T07:13:13;102046.91;;;14.58;74.56
19795;BME280;10057;59.402;17.866;2022-08-30T07:15:41;102052.84;;;14.66;74.49
19795;BME280;10057;59.402;17.866;2022-08-30T07:18:10;102054.41;;;14.73;74.38
19795;BME280;10057;59.402;17.866;2022-08-30T07:20:56;102057.72;;;14.80;73.93
19795;BME280;10057;59.402;17.866;2022-08-30T07:23:22;102037.91;;;14.87;73.94
19795;BME280;10057;59.402;17.866;2022-08-30T07:25:49;102050.19;;;14.92;73.79
19795;BME280;10057;59.402;17.866;2022-08-30T07:28:16;102042.00;;;14.97;73.62
19795;BME280;10057;59.402;17.866;2022-08-30T07:30:43;102048.91;;;15.04;73.62
19795;BME280;10057;59.402;17.866;2022-08-30T07:33:09;102043.38;;;15.09;73.45
19795;BME280;10057;59.402;17.866;2022-08-30T07:35:36;102038.69;;;15.15;73.47
19795;BME280;10057;59.402;17.866;2022-08-30T07:38:03;102042.81;;;15.24;73.23
19795;BME280;10057;59.402;17.866;2022-08-30T07:40:30;102045.22;;;15.32;73.13
19795;BME280;10057;59.402;17.866;2022-08-30T07:42:56;102047.56;;;15.41;72.90
19795;BME280;10057;59.402;17.866;2022-08-30T07:45:27;102048.97;;;15.51;72.83
19795;BME280;10057;59.402;17.866;2022-08-30T07:47:54;102048.69;;;15.59;72.56
19795;BME280;10057;59.402;17.866;2022-08-30T07:50:20;102043.94;;;15.67;72.29
19795;BME280;10057;59.402;17.866;2022-08-30T07:52:47;102060.69;;;15.72;72.17
19795;BME280;10057;59.402;17.866;2022-08-30T07:55:14;102046.13;;;15.79;72.08
19795;BME280;10057;59.402;17.866;2022-08-30T07:57:42;102053.06;;;15.85;71.85
19795;BME280;10057;59.402;17.866;2022-08-30T08:00:09;102053.66;;;15.93;71.80
19795;BME280;10057;59.402;17.866;2022-08-30T08:02:36;102068.59;;;15.99;71.65
19795;BME280;10057;59.402;17.866;2022-08-30T08:05:03;102060.97;;;16.11;71.71
19795;BME280;10057;59.402;17.866;2022-08-30T08:07:31;102052.28;;;16.27;71.79
19795;BME280;10057;59.402;17.866;2022-08-30T08:09:57;102062.41;;;16.42;71.41
19795;BME280;10057;59.402;17.866;2022-08-30T08:12:24;102053.69;;;16.59;71.47
19795;BME280;10057;59.402;17.866;2022-08-30T08:14:51;102060.19;;;16.75;71.25
19795;BME280;10057;59.402;17.866;2022-08-30T08:17:18;102054.63;;;17.00;71.56
19795;BME280;10057;59.402;17.866;2022-08-30T08:19:45;102053.84;;;17.58;72.29
19795;BME280;10057;59.402;17.866;2022-08-30T08:22:14;102056.88;;;18.09;71.26
19795;BME280;10057;59.402;17.866;2022-08-30T08:24:48;102058.09;;;18.57;72.10
19795;BME280;10057;59.402;17.866;2022-08-30T08:27:15;102053.69;;;19.42;72.92
19795;BME280;10057;59.402;17.866;2022-08-30T08:29:42;102055.72;;;20.51;72.30
19795;BME280;10057;59.402;17.866;2022-08-30T08:32:09;102053.56;;;21.47;71.13
19795;BME280;10057;59.402;17.866;2022-08-30T08:34:36;102057.25;;;22.30;68.95
19795;BME280;10057;59.402;17.866;2022-08-30T08:37:02;102058.19;;;22.43;63.67
19795;BME280;10057;59.402;17.866;2022-08-30T08:39:29;102071.31;;;21.80;63.06
19795;BME280;10057;59.402;17.866;2022-08-30T08:43:16;102066.44;;;21.27;61.90
19795;BME280;10057;59.402;17.866;2022-08-30T08:45:17;102058.78;;;21.05;61.97
19795;BME280;10057;59.402;17.866;2022-08-30T08:48:00;102054.63;;;20.70;61.24
19795;BME280;10057;59.402;17.866;2022-08-30T08:50:29;102066.53;;;20.50;61.00
19795;BME280;10057;59.402;17.866;2022-08-30T08:53:04;102064.03;;;20.63;60.74
19795;BME280;10057;59.402;17.866;2022-08-30T08:56:14;102065.88;;;20.62;60.38
19795;BME280;10057;59.402;17.866;2022-08-30T08:58:47;102056.88;;;21.22;59.67
19795;BME280;10057;59.402;17.866;2022-08-30T09:01:19;102062.03;;;21.84;58.55
19795;BME280;10057;59.402;17.866;2022-08-30T09:03:46;102068.06;;;22.01;57.20
19795;BME280;10057;59.402;17.866;2022-08-30T09:06:40;102061.94;;;21.57;56.25
19795;BME280;10057;59.402;17.866;2022-08-30T09:09:11;102072.38;;;21.04;56.82
19795;BME280;10057;59.402;17.866;2022-08-30T09:11:39;102069.94;;;20.69;56.73
19795;BME280;10057;59.402;17.866;2022-08-30T09:14:13;102070.84;;;20.38;57.04
19795;BME280;10057;59.402;17.866;2022-08-30T09:16:48;102068.06;;;20.08;57.15
19795;BME280;10057;59.402;17.866;2022-08-30T09:19:38;102066.81;;;20.61;59.19
19795;BME280;10057;59.402;17.866;2022-08-30T09:22:19;102070.75;;;21.16;58.82
19795;BME280;10057;59.402;17.866;2022-08-30T09:24:52;102078.22;;;21.98;58.94
19795;BME280;10057;59.402;17.866;2022-08-30T09:27:26;102070.78;;;22.57;57.52
19795;BME280;10057;59.402;17.866;2022-08-30T09:29:57;102067.13;;;23.11;55.93
19795;BME280;10057;59.402;17.866;2022-08-30T09:32:36;102062.94;;;23.32;55.76
19795;BME280;10057;59.402;17.866;2022-08-30T09:35:11;102063.78;;;23.20;53.80
19795;BME280;10057;59.402;17.866;2022-08-30T09:37:50;102063.34;;;23.13;53.94
19795;BME280;10057;59.402;17.866;2022-08-30T09:40:30;102066.19;;;23.50;53.92
19795;BME280;10057;59.402;17.866;2022-08-30T09:43:06;102055.31;;;23.88;52.84
19795;BME280;10057;59.402;17.866;2022-08-30T09:46:21;102067.03;;;23.38;51.44
19795;BME280;10057;59.402;17.866;2022-08-30T09:51:58;102071.22;;;22.37;51.59
19795;BME280;10057;59.402;17.866;2022-08-30T09:57:10;102073.16;;;21.65;51.79
19795;BME280;10057;59.402;17.866;2022-08-30T10:02:28;102076.56;;;20.94;51.75
19795;BME280;10057;59.402;17.866;2022-08-30T10:05:14;102079.34;;;20.62;52.19
19795;BME280;10057;59.402;17.866;2022-08-30T10:11:12;102112.03;;;19.58;54.40
19795;BME280;10057;59.402;17.866;2022-08-30T10:24:44;102102.72;;;17.65;59.43
19795;BME280;10057;59.402;17.866;2022-08-30T10:27:18;102105.00;;;17.53;60.16
19795;BME280;10057;59.402;17.866;2022-08-30T10:29:54;102110.00;;;17.42;60.45
19795;BME280;10057;59.402;17.866;2022-08-30T10:32:33;102107.69;;;17.33;60.53
19795;BME280;10057;59.402;17.866;2022-08-30T10:35:36;102112.41;;;17.28;61.14
19795;BME280;10057;59.402;17.866;2022-08-30T10:38:10;102118.03;;;17.22;61.34
19795;BME280;10057;59.402;17.866;2022-08-30T10:40:45;102113.88;;;17.15;61.65
19795;BME280;10057;59.402;17.866;2022-08-30T10:43:32;102125.56;;;17.14;61.66
19795;BME280;10057;59.402;17.866;2022-08-30T10:46:02;102113.34;;;17.07;62.41
19795;BME280;10057;59.402;17.866;2022-08-30T10:48:41;102112.31;;;17.09;62.70
19795;BME280;10057;59.402;17.866;2022-08-30T10:51:30;102104.84;;;17.17;63.30
19795;BME280;10057;59.402;17.866;2022-08-30T10:54:10;102100.47;;;17.35;63.45
19795;BME280;10057;59.402;17.866;2022-08-30T10:56:45;102098.84;;;17.51;63.65
19795;BME280;10057;59.402;17.866;2022-08-30T10:59:17;102107.00;;;17.69;63.50
19795;BME280;10057;59.402;17.866;2022-08-30T11:13:11;102119.75;;;18.60;61.50
19795;BME280;10057;59.402;17.866;2022-08-30T11:18:28;102120.13;;;18.52;60.70
19795;BME280;10057;59.402;17.866;2022-08-30T11:31:54;102122.09;;;18.48;60.90
19795;BME280;10057;59.402;17.866;2022-08-30T11:37:51;102124.91;;;18.45;60.49
19795;BME280;10057;59.402;17.866;2022-08-30T11:42:53;102133.50;;;18.54;60.33
19795;BME280;10057;59.402;17.866;2022-08-30T11:48:00;102124.03;;;18.64;60.02
19795;BME280;10057;59.402;17.866;2022-08-30T11:56:07;102116.59;;;18.88;59.43
19795;BME280;10057;59.402;17.866;2022-08-30T11:58:57;102129.22;;;18.86;58.94
19795;BME280;10057;59.402;17.866;2022-08-30T12:06:53;102131.53;;;18.57;59.08
19795;BME280;10057;59.402;17.866;2022-08-30T12:12:03;102129.94;;;18.53;59.32
19795;BME280;10057;59.402;17.866;2022-08-30T12:17:29;102138.25;;;18.85;59.31
19795;BME280;10057;59.402;17.866;2022-08-30T12:20:29;102130.78;;;19.09;59.28
19795;BME280;10057;59.402;17.866;2022-08-30T12:23:26;102116.34;;;19.27;58.95
19795;BME280;10057;59.402;17.866;2022-08-30T12:26:29;102111.91;;;19.44;58.18
19795;BME280;10057;59.402;17.866;2022-08-30T12:31:52;102120.84;;;19.44;57.70
19795;BME280;10057;59.402;17.866;2022-08-30T12:40:18;102125.44;;;19.25;57.69
19795;BME280;10057;59.402;17.866;2022-08-30T12:43:13;102126.00;;;19.14;57.72
19795;BME280;10057;59.402;17.866;2022-08-30T12:45:45;102124.84;;;19.02;57.64
19795;BME280;10057;59.402;17.866;2022-08-30T12:48:17;102126.31;;;18.90;57.58
19795;BME280;10057;59.402;17.866;2022-08-30T12:50:56;102131.16;;;18.84;57.69
19795;BME280;10057;59.402;17.866;2022-08-30T12:53:26;102130.59;;;18.77;57.87
19795;BME280;10057;59.402;17.866;2022-08-30T12:56:02;102123.44;;;18.76;58.09
19795;BME280;10057;59.402;17.866;2022-08-30T12:58:43;102123.44;;;18.76;58.01
19795;BME280;10057;59.402;17.866;2022-08-30T13:09:25;102129.34;;;19.19;57.67
19795;BME280;10057;59.402;17.866;2022-08-30T13:11:59;102129.66;;;19.30;57.38
19795;BME280;10057;59.402;17.866;2022-08-30T13:19:39;102135.28;;;19.26;56.62
19795;BME280;10057;59.402;17.866;2022-08-30T13:22:24;102141.06;;;19.18;56.73
19795;BME280;10057;59.402;17.866;2022-08-30T13:24:53;102137.00;;;19.09;56.62
19795;BME280;10057;59.402;17.866;2022-08-30T13:27:20;102139.00;;;19.06;56.49
19795;BME280;10057;59.402;17.866;2022-08-30T13:29:47;102136.38;;;19.04;56.59
19795;BME280;10057;59.402;17.866;2022-08-30T13:32:14;102140.97;;;19.02;56.27
19795;BME280;10057;59.402;17.866;2022-08-30T13:34:43;102139.28;;;19.00;56.12
19795;BME280;10057;59.402;17.866;2022-08-30T13:37:21;102130.38;;;18.99;56.09
19795;BME280;10057;59.402;17.866;2022-08-30T13:40:10;102133.06;;;18.99;55.96
19795;BME280;10057;59.402;17.866;2022-08-30T13:42:38;102128.69;;;18.97;55.80
19795;BME280;10057;59.402;17.866;2022-08-30T13:45:10;102130.66;;;18.93;55.65
19795;BME280;10057;59.402;17.866;2022-08-30T13:47:59;102130.03;;;18.88;55.96
19795;BME280;10057;59.402;17.866;2022-08-30T13:50:26;102139.13;;;18.85;55.63
19795;BME280;10057;59.402;17.866;2022-08-30T13:52:53;102138.47;;;18.80;55.64
19795;BME280;10057;59.402;17.866;2022-08-30T13:55:20;102145.91;;;18.75;55.53
19795;BME280;10057;59.402;17.866;2022-08-30T13:57:49;102141.66;;;18.69;55.69
19795;BME280;10057;59.402;17.866;2022-08-30T14:00:20;102140.16;;;18.64;55.97
19795;BME280;10057;59.402;17.866;2022-08-30T14:02:49;102133.97;;;18.62;56.11
19795;BME280;10057;59.402;17.866;2022-08-30T14:05:25;102140.16;;;18.64;56.41
19795;BME280;10057;59.402;17.866;2022-08-30T14:08:18;102135.50;;;18.67;56.11
19795;BME280;10057;59.402;17.866;2022-08-30T14:11:05;102146.97;;;18.71;55.86
19795;BME280;10057;59.402;17.866;2022-08-30T14:13:32;102143.31;;;18.74;55.01
19795;BME280;10057;59.402;17.866;2022-08-30T14:16:03;102143.47;;;18.69;55.05
19795;BME280;10057;59.402;17.866;2022-08-30T14:18:50;102146.16;;;18.69;55.15
19795;BME280;10057;59.402;17.866;2022-08-30T14:21:18;102145.31;;;18.68;55.24
19795;BME280;10057;59.402;17.866;2022-08-30T14:23:49;102159.75;;;18.66;55.19
19795;BME280;10057;59.402;17.866;2022-08-30T14:26:21;102140.16;;;18.64;54.97
19795;BME280;10057;59.402;17.866;2022-08-30T14:28:47;102145.69;;;18.61;55.01
19795;BME280;10057;59.402;17.866;2022-08-30T14:31:17;102145.75;;;18.59;54.88
19795;BME280;10057;59.402;17.866;2022-08-30T14:33:46;102152.66;;;18.65;54.98
19795;BME280;10057;59.402;17.866;2022-08-30T14:36:13;102150.63;;;18.70;54.96